createdAt,value
2023-04-02T00:00:21.467Z,1.58
2023-04-02T00:01:21.512Z,1.34
2023-04-02T00:02:21.633Z,1.23
2023-04-02T00:03:21.728Z,1.18
2023-04-02T00:04:21.700Z,1.25
2023-04-02T00:05:21.748Z,1.18
2023-04-02T00:06:21.800Z,1.25
2023-04-02T00:07:21.853Z,1.25
2023-04-02T00:08:21.898Z,1.12
2023-04-02T00:09:21.953Z,1.08
2023-04-02T00:10:22.007Z,1.08
2023-04-02T00:11:22.062Z,1.03
2023-04-02T00:12:22.117Z,1.23
2023-04-02T00:13:22.170Z,1.15
2023-04-02T00:14:22.218Z,1.22
2023-04-02T00:15:22.271Z,1.33
2023-04-02T00:16:22.370Z,1.51
2023-04-02T00:17:22.405Z,1.42
2023-04-02T00:18:22.470Z,1.56
2023-04-02T00:19:22.488Z,1.52
2023-04-02T00:20:22.561Z,1.32
2023-04-02T00:21:22.603Z,1.27
2023-04-02T00:22:22.672Z,1.21
2023-04-02T00:23:22.720Z,1.22
2023-04-02T00:24:22.766Z,1.20
2023-04-02T00:25:22.837Z,1.18
2023-04-02T00:26:22.888Z,1.13
2023-04-02T00:27:22.955Z,1.22
2023-04-02T00:28:23.024Z,1.36
2023-04-02T00:29:23.078Z,1.36
2023-04-02T00:30:23.128Z,1.44
2023-04-02T00:31:23.427Z,1.44
2023-04-02T00:32:23.247Z,1.56
2023-04-02T00:33:23.310Z,1.38
2023-04-02T00:34:23.350Z,1.30
2023-04-02T00:35:23.419Z,1.23
2023-04-02T00:36:23.542Z,1.17
2023-04-02T00:37:23.516Z,1.28
2023-04-02T00:38:23.573Z,1.46
2023-04-02T00:39:23.626Z,1.52
2023-04-02T00:40:23.697Z,1.55
2023-04-02T00:41:23.752Z,1.62
2023-04-02T00:42:23.810Z,1.78
2023-04-02T00:43:23.861Z,2.02
2023-04-02T00:44:23.920Z,1.99
2023-04-02T00:45:24.021Z,2.04
2023-04-02T00:46:24.069Z,2.07
2023-04-02T00:47:24.085Z,2.15
2023-04-02T00:48:24.158Z,2.35
2023-04-02T00:49:24.209Z,2.50
2023-04-02T00:50:24.263Z,2.53
2023-04-02T00:51:24.324Z,2.51
2023-04-02T00:52:24.393Z,2.59
2023-04-02T00:53:24.427Z,2.58
2023-04-02T00:54:24.479Z,2.53
2023-04-02T00:55:24.532Z,2.56
2023-04-02T00:56:24.596Z,2.50
2023-04-02T00:57:24.676Z,2.35
2023-04-02T00:58:24.730Z,2.20
2023-04-02T00:59:24.848Z,2.25
2023-04-02T01:00:24.912Z,2.34
2023-04-02T01:01:25.036Z,2.25
2023-04-02T01:02:25.045Z,2.19
2023-04-02T01:03:25.060Z,2.08
2023-04-02T01:04:25.068Z,2.14
2023-04-02T01:05:25.096Z,1.88
2023-04-02T01:06:25.092Z,1.58
2023-04-02T01:07:25.119Z,1.53
2023-04-02T01:08:25.129Z,1.79
2023-04-02T01:09:25.166Z,1.75
2023-04-02T01:10:25.175Z,1.74
2023-04-02T01:11:25.186Z,1.80
2023-04-02T01:12:25.198Z,1.75
2023-04-02T01:13:25.237Z,1.85
2023-04-02T01:14:25.232Z,1.99
2023-04-02T01:15:25.244Z,2.18
2023-04-02T01:16:25.394Z,2.18
2023-04-02T01:17:25.332Z,2.37
2023-04-02T01:18:25.324Z,2.28
2023-04-02T01:19:25.379Z,2.18
2023-04-02T01:20:25.429Z,2.14
2023-04-02T01:21:25.504Z,2.27
2023-04-02T01:22:25.550Z,2.11
2023-04-02T01:23:25.610Z,2.08
2023-04-02T01:24:25.666Z,2.31
2023-04-02T01:25:25.728Z,2.04
2023-04-02T01:26:25.779Z,2.13
2023-04-02T01:27:25.834Z,2.09
2023-04-02T01:28:25.880Z,2.01
2023-04-02T01:29:25.946Z,2.04
2023-04-02T01:30:26.012Z,2.02
2023-04-02T01:31:26.112Z,2.09
2023-04-02T01:32:26.158Z,2.06
2023-04-02T01:33:26.191Z,1.99
2023-04-02T01:34:26.771Z,1.89
2023-04-02T01:35:26.309Z,1.83
2023-04-02T01:36:26.349Z,1.76
2023-04-02T01:37:26.420Z,1.88
2023-04-02T01:38:26.472Z,2.04
2023-04-02T01:39:26.515Z,1.78
2023-04-02T01:40:26.557Z,1.76
2023-04-02T01:41:26.635Z,1.76
2023-04-02T01:42:26.734Z,2.04
2023-04-02T01:43:26.719Z,2.11
2023-04-02T01:44:26.788Z,2.25
2023-04-02T01:45:26.847Z,2.22
2023-04-02T01:46:26.980Z,2.11
2023-04-02T01:47:27.005Z,1.87
2023-04-02T01:48:27.027Z,1.98
2023-04-02T01:49:27.103Z,2.31
2023-04-02T01:50:27.128Z,2.39
2023-04-02T01:51:27.197Z,2.52
2023-04-02T01:52:27.247Z,3.10
2023-04-02T01:53:27.293Z,3.02
2023-04-02T01:54:27.359Z,3.10
2023-04-02T01:55:27.424Z,3.22
2023-04-02T01:56:27.467Z,3.13
2023-04-02T01:57:27.588Z,2.93
2023-04-02T01:58:27.574Z,2.51
2023-04-02T01:59:27.630Z,2.47
2023-04-02T02:00:27.735Z,2.30
2023-04-02T02:01:27.757Z,2.12
2023-04-02T02:02:27.892Z,2.19
2023-04-02T02:03:27.863Z,2.19
2023-04-02T02:04:27.919Z,2.41
2023-04-02T02:05:27.987Z,2.29
2023-04-02T02:06:28.033Z,2.27
2023-04-02T02:07:28.100Z,2.09
2023-04-02T02:08:28.135Z,2.20
2023-04-02T02:09:28.191Z,2.14
2023-04-02T02:10:28.251Z,1.89
2023-04-02T02:11:28.310Z,1.66
2023-04-02T02:12:28.431Z,1.59
2023-04-02T02:13:28.406Z,1.56
2023-04-02T02:14:28.478Z,1.71
2023-04-02T02:15:28.546Z,1.84
2023-04-02T02:16:28.647Z,2.03
2023-04-02T02:17:28.707Z,2.00
2023-04-02T02:18:28.734Z,2.08
2023-04-02T02:19:28.799Z,1.94
2023-04-02T02:20:28.834Z,1.71
2023-04-02T02:21:28.959Z,1.56
2023-04-02T02:22:29.001Z,1.55
2023-04-02T02:23:29.037Z,1.55
2023-04-02T02:24:29.099Z,1.56
2023-04-02T02:25:29.170Z,1.49
2023-04-02T02:26:29.208Z,1.59
2023-04-02T02:27:29.277Z,1.59
2023-04-02T02:28:29.327Z,1.55
2023-04-02T02:29:29.373Z,1.73
2023-04-02T02:30:29.448Z,2.05
2023-04-02T02:31:29.513Z,2.15
2023-04-02T02:32:29.632Z,2.12
2023-04-02T02:33:29.629Z,2.13
2023-04-02T02:34:29.673Z,2.13
2023-04-02T02:35:29.721Z,2.04
2023-04-02T02:36:29.786Z,2.08
2023-04-02T02:37:29.849Z,2.16
2023-04-02T02:38:29.903Z,2.20
2023-04-02T02:39:29.952Z,2.24
2023-04-02T02:40:30.041Z,2.22
2023-04-02T02:41:30.075Z,2.44
2023-04-02T02:42:30.152Z,2.45
2023-04-02T02:43:30.191Z,2.39
2023-04-02T02:44:30.235Z,2.58
2023-04-02T02:45:30.291Z,2.55
2023-04-02T02:46:30.398Z,2.58
2023-04-02T02:47:30.448Z,2.55
2023-04-02T02:48:30.478Z,2.60
2023-04-02T02:49:30.545Z,2.73
2023-04-02T02:50:30.575Z,2.84
2023-04-02T02:51:30.648Z,2.83
2023-04-02T02:52:30.698Z,2.86
2023-04-02T02:53:30.755Z,2.85
2023-04-02T02:54:30.809Z,2.86
2023-04-02T02:55:30.889Z,2.77
2023-04-02T02:56:30.949Z,2.81
2023-04-02T02:57:31.191Z,2.91
2023-04-02T02:58:31.046Z,2.80
2023-04-02T02:59:31.118Z,2.86
2023-04-02T03:00:31.199Z,2.85
2023-04-02T03:01:31.276Z,2.90
2023-04-02T03:02:31.430Z,2.85
2023-04-02T03:03:31.540Z,2.52
2023-04-02T03:04:31.459Z,2.34
2023-04-02T03:05:31.497Z,2.08
2023-04-02T03:06:31.564Z,2.02
2023-04-02T03:07:31.614Z,1.90
2023-04-02T03:08:31.672Z,1.91
2023-04-02T03:09:31.753Z,1.95
2023-04-02T03:10:31.796Z,1.86
2023-04-02T03:11:31.858Z,1.82
2023-04-02T03:12:31.939Z,1.91
2023-04-02T03:13:31.999Z,1.92
2023-04-02T03:14:32.056Z,1.92
2023-04-02T03:15:32.144Z,1.95
2023-04-02T03:16:32.179Z,2.03
2023-04-02T03:17:32.265Z,2.21
2023-04-02T03:18:32.294Z,2.30
2023-04-02T03:19:32.383Z,2.34
2023-04-02T03:20:32.433Z,2.51
2023-04-02T03:21:32.483Z,2.56
2023-04-02T03:22:32.542Z,2.48
2023-04-02T03:23:32.604Z,2.56
2023-04-02T03:24:32.701Z,2.43
2023-04-02T03:25:32.973Z,2.45
2023-04-02T03:26:32.823Z,2.32
2023-04-02T03:27:32.872Z,2.31
2023-04-02T03:28:32.917Z,2.26
2023-04-02T03:29:32.991Z,2.42
2023-04-02T03:30:33.054Z,2.46
2023-04-02T03:31:33.152Z,2.38
2023-04-02T03:32:33.198Z,2.39
2023-04-02T03:33:33.241Z,2.37
2023-04-02T03:34:33.294Z,2.45
2023-04-02T03:35:33.595Z,2.55
2023-04-02T03:36:33.403Z,2.51
2023-04-02T03:37:33.467Z,2.32
2023-04-02T03:38:33.532Z,2.14
2023-04-02T03:39:33.607Z,2.05
2023-04-02T03:40:33.661Z,2.02
2023-04-02T03:41:33.711Z,2.07
2023-04-02T03:42:33.779Z,1.83
2023-04-02T03:43:33.843Z,1.80
2023-04-02T03:44:33.899Z,1.54
2023-04-02T03:45:34.308Z,1.61
2023-04-02T03:46:34.088Z,1.49
2023-04-02T03:47:34.168Z,1.48
2023-04-02T03:48:34.145Z,1.65
2023-04-02T03:49:34.206Z,1.58
2023-04-02T03:50:34.275Z,1.57
2023-04-02T03:51:34.354Z,1.71
2023-04-02T03:52:34.411Z,1.80
2023-04-02T03:53:34.449Z,1.84
2023-04-02T03:54:34.529Z,2.07
2023-04-02T03:55:34.739Z,2.16
2023-04-02T03:56:34.644Z,2.38
2023-04-02T03:57:34.722Z,2.53
2023-04-02T03:58:34.821Z,2.70
2023-04-02T03:59:34.854Z,2.81
2023-04-02T04:00:34.873Z,2.87
2023-04-02T04:01:35.004Z,2.97
2023-04-02T04:02:35.067Z,2.99
2023-04-02T04:03:35.066Z,2.96
2023-04-02T04:04:35.162Z,2.96
2023-04-02T04:05:35.419Z,2.91
2023-04-02T04:06:35.267Z,2.97
2023-04-02T04:07:35.324Z,3.03
2023-04-02T04:08:35.397Z,3.09
2023-04-02T04:09:35.492Z,3.16
2023-04-02T04:10:35.514Z,3.13
2023-04-02T04:11:35.564Z,3.07
2023-04-02T04:12:35.634Z,2.92
2023-04-02T04:13:35.702Z,2.77
2023-04-02T04:14:35.747Z,2.74
2023-04-02T04:15:36.027Z,2.73
2023-04-02T04:16:35.931Z,2.63
2023-04-02T04:17:35.964Z,2.64
2023-04-02T04:18:36.016Z,2.56
2023-04-02T04:19:36.077Z,2.59
2023-04-02T04:20:36.137Z,2.60
2023-04-02T04:21:36.209Z,2.72
2023-04-02T04:22:36.268Z,2.79
2023-04-02T04:23:36.340Z,2.91
2023-04-02T04:24:36.398Z,2.71
2023-04-02T04:25:36.634Z,2.47
2023-04-02T04:26:36.524Z,2.38
2023-04-02T04:27:36.577Z,2.33
2023-04-02T04:28:36.639Z,2.10
2023-04-02T04:29:36.691Z,1.98
2023-04-02T04:30:36.758Z,1.81
2023-04-02T04:31:36.868Z,1.82
2023-04-02T04:32:36.946Z,1.71
2023-04-02T04:33:36.968Z,1.53
2023-04-02T04:34:37.023Z,1.54
2023-04-02T04:35:37.411Z,1.82
2023-04-02T04:36:37.152Z,1.98
2023-04-02T04:37:37.238Z,1.81
2023-04-02T04:38:37.287Z,1.69
2023-04-02T04:39:37.354Z,1.71
2023-04-02T04:40:37.418Z,1.64
2023-04-02T04:41:37.489Z,1.71
2023-04-02T04:42:37.540Z,1.87
2023-04-02T04:43:37.592Z,2.10
2023-04-02T04:44:37.677Z,2.63
2023-04-02T04:45:37.846Z,2.84
2023-04-02T04:46:37.785Z,2.99
2023-04-02T04:47:37.943Z,2.95
2023-04-02T04:48:37.918Z,2.91
2023-04-02T04:49:37.967Z,2.85
2023-04-02T04:50:38.057Z,2.85
2023-04-02T04:51:38.094Z,2.75
2023-04-02T04:52:38.184Z,2.58
2023-04-02T04:53:38.236Z,2.41
2023-04-02T04:54:38.297Z,2.35
2023-04-02T04:55:38.387Z,2.37
2023-04-02T04:56:38.408Z,2.24
2023-04-02T04:57:38.472Z,2.16
2023-04-02T04:58:38.549Z,2.20
2023-04-02T04:59:38.621Z,2.06
2023-04-02T05:00:38.673Z,2.08
2023-04-02T05:01:38.770Z,1.94
2023-04-02T05:02:38.808Z,1.99
2023-04-02T05:03:38.839Z,2.13
2023-04-02T05:04:38.923Z,2.25
2023-04-02T05:05:38.956Z,2.33
2023-04-02T05:06:39.046Z,2.26
2023-04-02T05:07:39.093Z,2.18
2023-04-02T05:08:39.155Z,2.28
2023-04-02T05:09:39.198Z,2.23
2023-04-02T05:10:39.294Z,2.18
2023-04-02T05:11:39.336Z,2.25
2023-04-02T05:12:39.398Z,2.21
2023-04-02T05:13:39.441Z,2.21
2023-04-02T05:14:39.514Z,2.27
2023-04-02T05:15:39.739Z,2.22
2023-04-02T05:16:39.854Z,2.14
2023-04-02T05:17:39.728Z,1.99
2023-04-02T05:18:39.756Z,2.20
2023-04-02T05:19:39.830Z,2.31
2023-04-02T05:20:39.872Z,2.28
2023-04-02T05:21:39.952Z,2.19
2023-04-02T05:22:41.394Z,2.20
2023-04-02T05:23:40.080Z,2.31
2023-04-02T05:24:40.127Z,2.18
2023-04-02T05:25:40.191Z,2.02
2023-04-02T05:26:40.239Z,2.05
2023-04-02T05:27:40.310Z,2.11
2023-04-02T05:28:40.377Z,2.02
2023-04-02T05:29:40.440Z,1.98
2023-04-02T05:30:40.532Z,1.79
2023-04-02T05:31:40.595Z,1.66
2023-04-02T05:32:40.649Z,1.59
2023-04-02T05:33:40.637Z,1.61
2023-04-02T05:34:40.693Z,1.66
2023-04-02T05:35:40.784Z,1.66
2023-04-02T05:36:40.800Z,1.64
2023-04-02T05:37:40.864Z,1.87
2023-04-02T05:38:40.936Z,1.82
2023-04-02T05:39:40.993Z,1.79
2023-04-02T05:40:41.082Z,1.84
2023-04-02T05:41:41.113Z,1.81
2023-04-02T05:42:41.193Z,1.89
2023-04-02T05:43:41.232Z,1.98
2023-04-02T05:44:41.293Z,2.01
2023-04-02T05:45:41.350Z,2.16
2023-04-02T05:46:41.457Z,2.18
2023-04-02T05:47:41.874Z,2.13
2023-04-02T05:48:41.570Z,2.04
2023-04-02T05:49:41.622Z,1.98
2023-04-02T05:50:41.666Z,2.24
2023-04-02T05:51:41.735Z,2.23
2023-04-02T05:52:41.800Z,2.30
2023-04-02T05:53:41.873Z,2.29
2023-04-02T05:54:41.923Z,2.37
2023-04-02T05:55:41.985Z,2.43
2023-04-02T05:56:42.039Z,2.25
2023-04-02T05:57:45.836Z,2.16
2023-04-02T05:58:45.565Z,2.17
2023-04-02T05:59:42.082Z,2.17
2023-04-02T06:00:42.109Z,2.19
2023-04-02T06:01:42.144Z,2.24
2023-04-02T06:02:42.139Z,2.30
2023-04-02T06:03:42.140Z,2.37
2023-04-02T06:04:42.051Z,2.48
2023-04-02T06:05:42.080Z,2.47
2023-04-02T06:06:42.045Z,2.45
2023-04-02T06:07:42.035Z,2.51
2023-04-02T06:08:42.051Z,2.60
2023-04-02T06:09:42.022Z,2.59
2023-04-02T06:10:42.027Z,2.62
2023-04-02T06:11:42.025Z,2.53
2023-04-02T06:12:42.051Z,2.69
2023-04-02T06:13:42.014Z,2.65
2023-04-02T06:14:42.010Z,2.62
2023-04-02T06:15:41.992Z,2.68
2023-04-02T06:16:42.013Z,2.67
2023-04-02T06:17:42.032Z,2.73
2023-04-02T06:18:41.952Z,2.57
2023-04-02T06:19:41.994Z,2.58
2023-04-02T06:20:41.965Z,2.56
2023-04-02T06:21:41.945Z,2.71
2023-04-02T06:22:41.960Z,2.66
2023-04-02T06:23:41.961Z,2.60
2023-04-02T06:24:41.927Z,2.66
2023-04-02T06:25:41.917Z,2.73
2023-04-02T06:26:41.914Z,2.73
2023-04-02T06:27:41.917Z,2.71
2023-04-02T06:28:41.908Z,2.76
2023-04-02T06:29:41.889Z,2.81
2023-04-02T06:30:41.943Z,2.82
2023-04-02T06:31:41.879Z,2.89
2023-04-02T06:32:41.938Z,2.95
2023-04-02T06:33:41.881Z,3.08
2023-04-02T06:34:41.864Z,3.23
2023-04-02T06:35:41.921Z,3.37
2023-04-02T06:36:41.916Z,3.41
2023-04-02T06:37:41.944Z,3.64
2023-04-02T06:38:41.969Z,3.86
2023-04-02T06:39:41.993Z,3.95
2023-04-02T06:40:41.999Z,4.33
2023-04-02T06:41:42.018Z,4.59
2023-04-02T06:42:42.056Z,5.13
2023-04-02T06:43:42.069Z,5.47
2023-04-02T06:44:42.095Z,5.63
2023-04-02T06:45:42.169Z,5.71
2023-04-02T06:46:42.103Z,5.69
2023-04-02T06:47:42.189Z,5.87
2023-04-02T06:48:42.115Z,5.90
2023-04-02T06:49:42.126Z,5.88
2023-04-02T06:50:42.160Z,5.80
2023-04-02T06:51:42.135Z,5.76
2023-04-02T06:52:42.136Z,5.49
2023-04-02T06:53:42.133Z,5.49
2023-04-02T06:54:42.175Z,5.55
2023-04-02T06:55:42.130Z,5.73
2023-04-02T06:56:42.115Z,5.80
2023-04-02T06:57:43.040Z,5.74
2023-04-02T06:58:42.149Z,5.77
2023-04-02T06:59:42.185Z,5.60
2023-04-02T07:00:42.184Z,5.16
2023-04-02T07:01:42.257Z,5.02
2023-04-02T07:02:42.304Z,4.68
2023-04-02T07:03:42.306Z,4.88
2023-04-02T07:04:42.424Z,4.76
2023-04-02T07:05:43.190Z,4.69
2023-04-02T07:06:42.488Z,4.79
2023-04-02T07:07:42.536Z,4.81
2023-04-02T07:08:42.603Z,4.62
2023-04-02T07:09:42.677Z,4.51
2023-04-02T07:10:42.723Z,4.73
2023-04-02T07:11:42.777Z,4.70
2023-04-02T07:12:42.852Z,4.69
2023-04-02T07:13:42.904Z,4.74
2023-04-02T07:14:42.931Z,4.73
2023-04-02T07:15:43.036Z,4.53
2023-04-02T07:16:43.033Z,4.44
2023-04-02T07:17:43.102Z,4.38
2023-04-02T07:18:43.090Z,4.52
2023-04-02T07:19:43.142Z,4.37
2023-04-02T07:20:43.167Z,4.34
2023-04-02T07:21:43.207Z,4.35
2023-04-02T07:22:43.234Z,4.32
2023-04-02T07:23:43.259Z,4.38
2023-04-02T07:24:43.268Z,4.40
2023-04-02T07:25:43.285Z,4.21
2023-04-02T07:26:43.321Z,4.17
2023-04-02T07:27:43.342Z,4.23
2023-04-02T07:28:43.332Z,4.18
2023-04-02T07:29:43.347Z,4.09
2023-04-02T07:30:43.330Z,4.09
2023-04-02T07:31:43.449Z,4.14
2023-04-02T07:32:43.364Z,4.10
2023-04-02T07:33:43.366Z,4.07
2023-04-02T07:34:43.383Z,4.02
2023-04-02T07:35:43.426Z,3.98
2023-04-02T07:36:43.423Z,3.93
2023-04-02T07:37:43.430Z,3.98
2023-04-02T07:38:43.445Z,3.96
2023-04-02T07:39:43.528Z,3.93
2023-04-02T07:40:43.565Z,3.84
2023-04-02T07:41:43.590Z,3.88
2023-04-02T07:42:43.616Z,3.91
2023-04-02T07:43:43.593Z,3.91
2023-04-02T07:44:43.616Z,3.89
2023-04-02T07:45:43.614Z,3.90
2023-04-02T07:46:43.632Z,3.78
2023-04-02T07:47:43.615Z,3.77
2023-04-02T07:48:43.617Z,3.87
2023-04-02T07:49:43.600Z,3.73
2023-04-02T07:50:43.592Z,3.80
2023-04-02T07:51:43.612Z,3.81
2023-04-02T07:52:43.625Z,3.64
2023-04-02T07:53:43.608Z,3.80
2023-04-02T07:54:43.610Z,3.68
2023-04-02T07:55:43.623Z,3.66
2023-04-02T07:56:43.692Z,3.53
2023-04-02T07:57:46.377Z,3.63
2023-04-02T07:58:43.784Z,3.52
2023-04-02T07:59:43.717Z,3.30
2023-04-02T08:00:43.709Z,3.38
2023-04-02T08:01:43.776Z,3.31
2023-04-02T08:02:43.745Z,3.44
2023-04-02T08:03:43.858Z,3.35
2023-04-02T08:04:43.709Z,3.26
2023-04-02T08:05:43.702Z,3.15
2023-04-02T08:06:43.715Z,3.29
2023-04-02T08:07:43.680Z,3.10
2023-04-02T08:08:43.687Z,3.02
2023-04-02T08:09:43.654Z,3.00
2023-04-02T08:10:43.666Z,2.94
2023-04-02T08:11:43.671Z,2.90
2023-04-02T08:12:43.636Z,2.95
2023-04-02T08:13:43.650Z,3.02
2023-04-02T08:14:43.651Z,2.87
2023-04-02T08:15:43.614Z,2.83
2023-04-02T08:16:43.629Z,2.78
2023-04-02T08:17:43.684Z,2.80
2023-04-02T08:18:43.614Z,2.74
2023-04-02T08:19:54.254Z,2.77
2023-04-02T08:20:44.598Z,2.78
2023-04-02T08:21:43.596Z,2.79
2023-04-02T08:22:43.584Z,2.72
2023-04-02T08:23:43.624Z,2.68
2023-04-02T08:24:43.645Z,2.53
2023-04-02T08:25:43.554Z,2.58
2023-04-02T08:26:45.479Z,2.61
2023-04-02T08:27:43.544Z,2.55
2023-04-02T08:28:43.563Z,2.53
2023-04-02T08:29:43.544Z,2.42
2023-04-02T08:30:43.597Z,2.36
2023-04-02T08:31:43.585Z,2.40
2023-04-02T08:32:43.669Z,2.45
2023-04-02T08:33:43.655Z,2.49
2023-04-02T08:34:43.694Z,2.51
2023-04-02T08:35:43.756Z,2.49
2023-04-02T08:36:43.784Z,2.43
2023-04-02T08:37:43.798Z,2.42
2023-04-02T08:38:43.863Z,2.35
2023-04-02T08:39:43.863Z,2.29
2023-04-02T08:40:43.892Z,2.32
2023-04-02T08:41:43.910Z,2.17
2023-04-02T08:42:43.951Z,2.18
2023-04-02T08:43:44.024Z,2.16
2023-04-02T08:44:43.976Z,2.14
2023-04-02T08:45:44.040Z,2.22
2023-04-02T08:46:44.034Z,2.23
2023-04-02T08:47:44.076Z,2.21
2023-04-02T08:48:44.103Z,2.18
2023-04-02T08:49:44.101Z,2.12
2023-04-02T08:50:44.124Z,2.06
2023-04-02T08:51:44.145Z,2.09
2023-04-02T08:52:44.168Z,1.95
2023-04-02T08:53:44.176Z,1.98
2023-04-02T08:54:44.200Z,1.96
2023-04-02T08:55:44.291Z,1.96
2023-04-02T08:56:44.257Z,1.83
2023-04-02T08:57:44.260Z,1.82
2023-04-02T08:58:44.294Z,1.87
2023-04-02T08:59:44.327Z,1.71
2023-04-02T09:00:44.322Z,1.69
2023-04-02T09:01:44.459Z,1.79
2023-04-02T09:02:44.394Z,1.76
2023-04-02T09:03:44.393Z,1.72
2023-04-02T09:04:44.430Z,1.76
2023-04-02T09:05:44.450Z,1.78
2023-04-02T09:06:44.505Z,1.66
2023-04-02T09:07:44.532Z,1.62
2023-04-02T09:08:44.563Z,1.66
2023-04-02T09:09:44.596Z,1.71
2023-04-02T09:10:44.619Z,1.66
2023-04-02T09:11:44.660Z,1.68
2023-04-02T09:12:44.708Z,1.64
2023-04-02T09:13:44.749Z,1.54
2023-04-02T09:14:44.780Z,1.59
2023-04-02T09:15:44.944Z,1.52
2023-04-02T09:16:44.830Z,1.49
2023-04-02T09:17:53.639Z,1.47
2023-04-02T09:18:45.923Z,1.47
2023-04-02T09:19:44.882Z,1.48
2023-04-02T09:20:44.866Z,1.47
2023-04-02T09:21:44.852Z,1.33
2023-04-02T09:22:44.841Z,1.28
2023-04-02T09:23:44.837Z,1.23
2023-04-02T09:24:44.840Z,1.27
2023-04-02T09:25:51.054Z,1.18
2023-04-02T09:26:45.841Z,1.18
2023-04-02T09:27:44.816Z,1.18
2023-04-02T09:28:44.813Z,1.17
2023-04-02T09:29:44.838Z,1.16
2023-04-02T09:30:44.819Z,1.15
2023-04-02T09:31:44.815Z,1.15
2023-04-02T09:32:44.880Z,1.14
2023-04-02T09:33:44.817Z,1.12
2023-04-02T09:34:44.806Z,1.17
2023-04-02T09:35:44.878Z,1.18
2023-04-02T09:36:44.769Z,1.12
2023-04-02T09:37:44.769Z,1.14
2023-04-02T09:38:44.836Z,1.05
2023-04-02T09:39:44.935Z,1.04
2023-04-02T09:40:44.907Z,1.10
2023-04-02T09:41:48.200Z,1.05
2023-04-02T09:42:45.971Z,1.05
2023-04-02T09:43:44.970Z,0.99
2023-04-02T09:44:44.939Z,1.05
2023-04-02T09:45:44.940Z,0.98
2023-04-02T09:46:44.991Z,1.04
2023-04-02T09:47:44.972Z,1.06
2023-04-02T09:48:44.920Z,1.07
2023-04-02T09:49:44.948Z,1.08
2023-04-02T09:50:44.915Z,1.15
2023-04-02T09:51:44.899Z,1.05
2023-04-02T09:52:44.915Z,1.09
2023-04-02T09:53:44.960Z,1.15
2023-04-02T09:54:45.023Z,1.09
2023-04-02T09:55:45.088Z,1.06
2023-04-02T09:56:45.134Z,1.12
2023-04-02T09:57:45.203Z,1.11
2023-04-02T09:58:45.259Z,1.06
2023-04-02T09:59:45.309Z,1.07
2023-04-02T10:00:45.589Z,1.08
2023-04-02T10:01:45.452Z,1.08
2023-04-02T10:02:45.529Z,1.07
2023-04-02T10:03:45.562Z,1.20
2023-04-02T10:04:45.666Z,1.17
2023-04-02T10:05:46.022Z,1.14
2023-04-02T10:06:45.726Z,1.18
2023-04-02T10:07:45.787Z,1.15
2023-04-02T10:08:45.822Z,1.16
2023-04-02T10:09:45.856Z,1.29
2023-04-02T10:10:45.901Z,1.22
2023-04-02T10:11:46.848Z,1.21
2023-04-02T10:12:45.984Z,1.23
2023-04-02T10:13:46.023Z,1.12
2023-04-02T10:14:46.049Z,1.24
2023-04-02T10:15:46.053Z,1.31
2023-04-02T10:16:46.149Z,1.23
2023-04-02T10:17:46.136Z,1.17
2023-04-02T10:18:46.100Z,1.22
2023-04-02T10:19:46.099Z,1.24
2023-04-02T10:20:51.198Z,1.18
2023-04-02T10:21:47.080Z,1.18
2023-04-02T10:22:46.058Z,1.18
2023-04-02T10:23:46.100Z,1.19
2023-04-02T10:24:46.064Z,1.24
2023-04-02T10:25:46.051Z,1.22
2023-04-02T10:26:46.047Z,1.28
2023-04-02T10:27:46.046Z,1.26
2023-04-02T10:28:46.063Z,1.23
2023-04-02T10:29:46.036Z,1.30
2023-04-02T10:30:46.085Z,1.25
2023-04-02T10:31:46.014Z,1.24
2023-04-02T10:32:46.007Z,1.21
2023-04-02T10:33:46.005Z,1.23
2023-04-02T10:34:45.993Z,1.23
2023-04-02T10:35:45.994Z,1.16
2023-04-02T10:36:45.985Z,1.23
2023-04-02T10:37:45.976Z,1.22
2023-04-02T10:38:45.954Z,1.19
2023-04-02T10:39:45.974Z,1.21
2023-04-02T10:40:45.958Z,1.26
2023-04-02T10:41:45.936Z,1.17
2023-04-02T10:42:45.931Z,1.11
2023-04-02T10:43:45.944Z,1.20
2023-04-02T10:44:45.949Z,1.23
2023-04-02T10:45:45.938Z,1.11
2023-04-02T10:46:45.924Z,1.15
2023-04-02T10:47:45.937Z,1.14
2023-04-02T10:48:45.891Z,1.11
2023-04-02T10:49:45.932Z,1.04
2023-04-02T10:50:45.891Z,1.08
2023-04-02T10:51:45.908Z,1.07
2023-04-02T10:52:45.920Z,1.01
2023-04-02T10:53:45.870Z,1.05
2023-04-02T10:54:45.877Z,1.11
2023-04-02T10:55:45.858Z,1.12
2023-04-02T10:56:51.177Z,1.06
2023-04-02T10:57:46.867Z,1.07
2023-04-02T10:58:45.837Z,1.07
2023-04-02T10:59:45.852Z,1.08
2023-04-02T11:00:45.873Z,1.11
2023-04-02T11:01:45.882Z,1.14
2023-04-02T11:02:45.924Z,1.16
2023-04-02T11:03:45.931Z,1.10
2023-04-02T11:04:45.808Z,1.16
2023-04-02T11:05:45.788Z,1.12
2023-04-02T11:06:45.783Z,1.16
2023-04-02T11:07:45.787Z,1.09
2023-04-02T11:08:45.766Z,1.06
2023-04-02T11:09:45.784Z,1.07
2023-04-02T11:10:45.791Z,1.05
2023-04-02T11:11:45.760Z,1.06
2023-04-02T11:12:45.747Z,1.10
2023-04-02T11:13:45.735Z,1.09
2023-04-02T11:14:45.739Z,1.15
2023-04-02T11:15:45.767Z,1.10
2023-04-02T11:16:45.819Z,1.09
2023-04-02T11:17:45.786Z,1.11
2023-04-02T11:18:45.793Z,1.11
2023-04-02T11:19:45.854Z,1.16
2023-04-02T11:20:45.940Z,1.11
2023-04-02T11:21:57.869Z,1.13
2023-04-02T11:22:46.988Z,1.09
2023-04-02T11:23:45.970Z,1.13
2023-04-02T11:24:45.973Z,1.08
2023-04-02T11:25:46.000Z,1.12
2023-04-02T11:26:45.967Z,1.17
2023-04-02T11:27:45.940Z,1.14
2023-04-02T11:28:45.952Z,1.17
2023-04-02T11:29:45.941Z,1.16
2023-04-02T11:30:45.949Z,1.14
2023-04-02T11:31:45.994Z,1.14
2023-04-02T11:32:46.052Z,1.20
2023-04-02T11:33:48.083Z,1.14
2023-04-02T11:34:47.052Z,1.20
2023-04-02T11:35:46.119Z,1.21
2023-04-02T11:36:46.013Z,1.12
2023-04-02T11:37:46.028Z,1.08
2023-04-02T11:38:45.992Z,1.14
2023-04-02T11:39:46.002Z,1.13
2023-04-02T11:40:46.018Z,1.13
2023-04-02T11:41:45.974Z,1.07
2023-04-02T11:42:45.985Z,1.15
2023-04-02T11:43:45.969Z,1.15
2023-04-02T11:44:45.963Z,1.17
2023-04-02T11:45:52.835Z,1.14
2023-04-02T11:46:47.042Z,1.12
2023-04-02T11:47:45.982Z,1.14
2023-04-02T11:48:45.947Z,1.14
2023-04-02T11:49:45.937Z,1.10
2023-04-02T11:50:45.954Z,1.04
2023-04-02T11:51:45.935Z,1.04
2023-04-02T11:52:45.916Z,1.07
2023-04-02T11:53:45.899Z,1.07
2023-04-02T11:54:45.901Z,1.10
2023-04-02T11:55:45.883Z,1.11
2023-04-02T11:56:45.877Z,1.07
2023-04-02T11:57:45.880Z,1.06
2023-04-02T11:58:45.873Z,1.04
2023-04-02T11:59:45.855Z,1.00
2023-04-02T12:00:45.872Z,1.01
2023-04-02T12:01:45.911Z,0.99
2023-04-02T12:02:45.914Z,1.05
2023-04-02T12:03:45.835Z,1.07
2023-04-02T12:04:45.888Z,1.01
2023-04-02T12:05:45.930Z,1.04
2023-04-02T12:06:45.856Z,1.02
2023-04-02T12:07:45.865Z,1.01
2023-04-02T12:08:57.013Z,1.04
2023-04-02T12:09:46.882Z,1.04
2023-04-02T12:10:45.898Z,1.05
2023-04-02T12:11:45.858Z,1.08
2023-04-02T12:12:45.865Z,1.02
2023-04-02T12:13:45.863Z,1.04
2023-04-02T12:14:45.865Z,1.10
2023-04-02T12:15:45.853Z,1.05
2023-04-02T12:16:45.892Z,1.04
2023-04-02T12:17:45.861Z,1.09
2023-04-02T12:18:45.813Z,1.07
2023-04-02T12:19:45.835Z,1.12
2023-04-02T12:20:45.795Z,1.07
2023-04-02T12:21:45.789Z,1.08
2023-04-02T12:22:45.786Z,1.04
2023-04-02T12:23:45.792Z,0.99
2023-04-02T12:24:45.798Z,1.04
2023-04-02T12:25:45.791Z,1.03
2023-04-02T12:26:45.801Z,1.01
2023-04-02T12:27:45.854Z,1.02
2023-04-02T12:28:45.869Z,1.02
2023-04-02T12:29:45.912Z,1.07
2023-04-02T12:30:45.953Z,1.07
2023-04-02T12:31:45.963Z,1.06
2023-04-02T12:32:46.014Z,1.12
2023-04-02T12:33:46.040Z,1.09
2023-04-02T12:34:46.055Z,1.11
2023-04-02T12:35:46.110Z,1.10
2023-04-02T12:36:46.124Z,1.06
2023-04-02T12:37:46.155Z,1.11
2023-04-02T12:38:46.175Z,1.07
2023-04-02T12:39:46.221Z,1.13
2023-04-02T12:40:46.263Z,1.07
2023-04-02T12:41:46.263Z,1.02
2023-04-02T12:42:46.326Z,1.05
2023-04-02T12:43:46.333Z,1.02
2023-04-02T12:44:46.355Z,1.02
2023-04-02T12:45:46.412Z,1.00
2023-04-02T12:46:46.419Z,0.99
2023-04-02T12:47:46.502Z,1.05
2023-04-02T12:48:46.480Z,1.10
2023-04-02T12:49:46.525Z,1.07
2023-04-02T12:50:46.544Z,1.01
2023-04-02T12:51:46.579Z,1.05
2023-04-02T12:52:46.606Z,1.08
2023-04-02T12:53:46.649Z,1.05
2023-04-02T12:54:46.706Z,1.01
2023-04-02T12:55:46.736Z,0.99
2023-04-02T12:56:46.777Z,0.97
2023-04-02T12:57:46.827Z,1.03
2023-04-02T12:58:46.858Z,0.97
2023-04-02T12:59:46.899Z,0.95
2023-04-02T13:00:46.945Z,0.98
2023-04-02T13:01:47.017Z,1.02
2023-04-02T13:02:47.041Z,0.99
2023-04-02T13:03:47.110Z,0.92
2023-04-02T13:04:47.113Z,0.93
2023-04-02T13:05:47.146Z,0.90
2023-04-02T13:06:47.211Z,0.88
2023-04-02T13:07:47.233Z,1.03
2023-04-02T13:08:47.267Z,1.02
2023-04-02T13:09:47.333Z,0.99
2023-04-02T13:10:47.356Z,0.95
2023-04-02T13:11:47.391Z,0.93
2023-04-02T13:12:47.432Z,1.01
2023-04-02T13:13:47.479Z,0.91
2023-04-02T13:14:47.545Z,0.92
2023-04-02T13:15:47.610Z,0.95
2023-04-02T13:16:47.632Z,0.98
2023-04-02T13:17:47.728Z,1.02
2023-04-02T13:18:47.726Z,1.04